Tri-Cities Regional Airport

Airport
ICAO code: 
KTRI
Summary
ICAO Region: 
NAM
Territory: 
Location: 
Blountville, Tennessee,
Coordinates: 
Aerial View: 
36° 28' 51.941" N, 82° 24' 28.291" W
Airport WX: 
Cumulonimbus
Metar
Observation
KTRI 040653Z 00000KT 10SM BKN250 04/03 A3007 RMK AO2 SLP170 T00440033
Station
Bristol / Johnson / Kingsport, Tri-City Regional Airport
Date/Time
2021-12-04 06:53:00
Wind direction
Wind speed
00 kts
Lowest cloud amount
broken clouds
Temperature
4.4°C
Dew point
3.3°C
Humidity
92%
Weather condition
n/a

Description

Tri-Cities Regional Airport is a public use airport adjacent to Blountville, in Sullivan County, Tennessee. It primarily serves the Tri-Cities area of Bristol, Kingsport and Johnson City in Northeast Tennessee and Southwest Virginia.

Climatology

Humid “subtropical” climate (Köppen climate classification Cfa) - characterized by hot, humid summers and cool winters. Significant amounts of precipitation occur in all seasons in most areas. Winter rainfall (and sometimes snowfall) is associated with large storms that the westerlies steer from west to east. Most summer rainfall occurs during thunderstorms and occasional tropical storms (hurricanes).

Runways

Designator Length Width Surface Rops
9/27 1354 46 ASP Yes/Yes
5/23 2448 46 ASP Yes/Yes
Airport map: 
Aerial View: 

SKYbrary Partners:

Safety knowledge contributed by: